Time;durP1;ratioP1;P1;durP2;ratioP2;P2;SDS_P1;SDS_P2;PMS_P1;PMS_P2;Temp;Humidity;BMP_temperature;BMP_pressure;BME280_temperature;BME280_humidity;BME280_pressure;Samples;Min_cycle;Max_cycle;Signal;HPM_P1;HPM_P2
2024/04/22 05:00:19;;;;;;;14.63;5.77;;;;;;;;;;6384476;22;20486;-71
2024/04/22 05:02:45;;;;;;;11.70;5.13;;;;;;;;;;5242539;27;20475;-72
2024/04/22 05:05:11;;;;;;;12.00;5.07;;;;;;;;;;5244994;27;20544;-71
2024/04/22 05:07:37;;;;;;;10.17;5.10;;;;;;;;;;5244884;27;20458;-72
2024/04/22 05:10:04;;;;;;;8.43;4.90;;;;;;;;;;5244849;27;20519;-72
2024/04/22 05:12:32;;;;;;;7.67;4.83;;;;;;;;;;5244991;27;20459;-70
2024/04/22 05:15:00;;;;;;;9.77;5.67;;;;;;;;;;5216165;27;20538;-75
2024/04/22 05:17:26;;;;;;;9.23;5.63;;;;;;;;;;5244659;27;20448;-75
2024/04/22 05:19:52;;;;;;;11.23;5.00;;;;;;;;;;5245102;27;20507;-75
2024/04/22 05:22:18;;;;;;;11.10;4.50;;;;;;;;;;5244365;27;21014;-76
2024/04/22 05:24:44;;;;;;;6.40;4.50;;;;;;;;;;5244342;27;20964;-75
2024/04/22 05:27:10;;;;;;;11.00;4.90;;;;;;;;;;5214636;27;20534;-76
2024/04/22 05:29:36;;;;;;;12.10;4.20;;;;;;;;;;5214891;27;20472;-76
2024/04/22 05:32:02;;;;;;;12.93;4.20;;;;;;;;;;5241214;27;20527;-76
2024/04/22 05:37:12;;;;;;;8.60;4.67;;;;;;;;;;5238817;27;20613;-74
2024/04/22 05:39:38;;;;;;;9.50;5.00;;;;;;;;;;5236765;27;20481;-75
2024/04/22 05:42:05;;;;;;;8.43;4.43;;;;;;;;;;5244193;27;20471;-74
2024/04/22 05:44:30;;;;;;;6.40;3.83;;;;;;;;;;5239516;27;20469;-76
2024/04/22 05:46:56;;;;;;;6.97;3.80;;;;;;;;;;5225248;27;20523;-75
2024/04/22 05:49:25;;;;;;;4.67;4.10;;;;;;;;;;5244513;27;20564;-75
2024/04/22 05:51:50;;;;;;;4.23;3.80;;;;;;;;;;5221047;27;21015;-71
2024/04/22 05:54:16;;;;;;;8.77;4.33;;;;;;;;;;5188795;27;20521;-71
2024/04/22 05:56:43;;;;;;;6.67;4.10;;;;;;;;;;5213124;27;20449;-71
2024/04/22 05:59:10;;;;;;;8.10;4.47;;;;;;;;;;5210251;27;20544;-71
2024/04/22 06:01:36;;;;;;;6.37;4.40;;;;;;;;;;5210355;27;20542;-71
2024/04/22 06:04:06;;;;;;;5.83;3.97;;;;;;;;;;5210994;27;20462;-71
2024/04/22 06:06:33;;;;;;;7.87;6.23;;;;;;;;;;5210873;27;20449;-71
2024/04/22 06:08:59;;;;;;;8.20;4.80;;;;;;;;;;5206237;27;20495;-71
2024/04/22 06:11:25;;;;;;;8.53;4.70;;;;;;;;;;5243939;27;20471;-71
2024/04/22 06:13:51;;;;;;;7.17;3.90;;;;;;;;;;5243215;27;20500;-71
2024/04/22 06:16:17;;;;;;;5.43;3.60;;;;;;;;;;5243263;27;20508;-71
2024/04/22 06:18:43;;;;;;;6.20;4.17;;;;;;;;;;5243287;27;20514;-71
2024/04/22 06:21:09;;;;;;;4.90;4.00;;;;;;;;;;5241203;27;20471;-70
2024/04/22 06:23:35;;;;;;;8.73;4.47;;;;;;;;;;5210233;27;20509;-70
2024/04/22 06:26:04;;;;;;;9.27;4.30;;;;;;;;;;5211897;27;20477;-70
2024/04/22 06:28:31;;;;;;;9.67;4.77;;;;;;;;;;5212261;27;20544;-71
2024/04/22 06:30:57;;;;;;;8.63;4.10;;;;;;;;;;5209690;27;20481;-70
2024/04/22 06:33:23;;;;;;;5.47;3.80;;;;;;;;;;5233238;27;20531;-73
2024/04/22 06:35:49;;;;;;;8.50;4.37;;;;;;;;;;5243272;27;20456;-70
2024/04/22 06:38:15;;;;;;;8.73;4.63;;;;;;;;;;5224878;27;20525;-74
2024/04/22 06:40:43;;;;;;;6.47;4.03;;;;;;;;;;5240126;27;21002;-73
2024/04/22 06:43:11;;;;;;;5.77;3.93;;;;;;;;;;5218534;27;20477;-74
2024/04/22 06:45:40;;;;;;;5.93;4.40;;;;;;;;;;5220311;27;20556;-70
2024/04/22 06:48:06;;;;;;;7.60;4.07;;;;;;;;;;5228693;27;20871;-69
2024/04/22 06:50:32;;;;;;;6.57;3.77;;;;;;;;;;5240074;27;20659;-69
2024/04/22 06:52:58;;;;;;;10.27;4.97;;;;;;;;;;5243405;27;20525;-71
2024/04/22 06:55:24;;;;;;;8.47;5.07;;;;;;;;;;5243144;27;20510;-71
2024/04/22 06:57:50;;;;;;;7.57;4.40;;;;;;;;;;5242772;27;20452;-71
2024/04/22 07:00:17;;;;;;;4.80;3.27;;;;;;;;;;5223543;27;20533;-74
2024/04/22 07:02:43;;;;;;;7.00;4.20;;;;;;;;;;5181275;27;20787;-75
2024/04/22 07:05:09;;;;;;;7.20;4.20;;;;;;;;;;5210687;27;20523;-77
2024/04/22 07:07:35;;;;;;;5.97;3.50;;;;;;;;;;5210656;27;20565;-72
2024/04/22 07:10:02;;;;;;;6.07;4.23;;;;;;;;;;5217830;27;20469;-69
2024/04/22 07:12:28;;;;;;;8.93;3.40;;;;;;;;;;5205655;27;20782;-70
2024/04/22 07:14:53;;;;;;;7.60;3.93;;;;;;;;;;5219261;27;20574;-70
2024/04/22 07:17:20;;;;;;;7.30;4.50;;;;;;;;;;5209388;27;20518;-70
2024/04/22 07:19:46;;;;;;;5.13;3.87;;;;;;;;;;5209054;27;20450;-70
2024/04/22 07:22:13;;;;;;;5.20;3.87;;;;;;;;;;5233248;27;21326;-69
2024/04/22 07:24:39;;;;;;;6.10;3.27;;;;;;;;;;5222445;27;20484;-74
2024/04/22 07:27:05;;;;;;;5.23;3.60;;;;;;;;;;5247278;27;20572;-74
2024/04/22 07:29:32;;;;;;;3.87;3.13;;;;;;;;;;5252765;27;20467;-73
2024/04/22 07:31:58;;;;;;;5.97;4.40;;;;;;;;;;5240199;27;20611;-73
2024/04/22 07:34:24;;;;;;;4.60;3.60;;;;;;;;;;5236588;27;20868;-72
2024/04/22 07:36:58;;;;;;;4.70;3.70;;;;;;;;;;5209724;27;20481;-72
2024/04/22 07:39:25;;;;;;;6.00;4.07;;;;;;;;;;5192256;27;20474;-72
2024/04/22 07:41:51;;;;;;;6.10;3.73;;;;;;;;;;5242379;27;21014;-72
2024/04/22 07:44:17;;;;;;;5.07;2.87;;;;;;;;;;5238186;27;20448;-73
2024/04/22 07:46:44;;;;;;;10.13;3.07;;;;;;;;;;5230188;27;20468;-72
2024/04/22 07:49:10;;;;;;;4.37;3.00;;;;;;;;;;5194255;27;20794;-72
2024/04/22 07:51:39;;;;;;;9.53;4.23;;;;;;;;;;5227719;27;20534;-73
2024/04/22 07:54:05;;;;;;;6.37;3.17;;;;;;;;;;5232059;27;20469;-73
2024/04/22 07:56:32;;;;;;;8.67;3.93;;;;;;;;;;5232526;27;20806;-72
2024/04/22 07:58:58;;;;;;;4.43;2.97;;;;;;;;;;5241276;27;20584;-73
2024/04/22 08:01:24;;;;;;;6.33;3.27;;;;;;;;;;5236296;27;20468;-73
2024/04/22 08:03:50;;;;;;;5.93;3.20;;;;;;;;;;5232324;27;20531;-75
2024/04/22 08:06:19;;;;;;;4.20;2.70;;;;;;;;;;5242393;27;20536;-76
2024/04/22 08:08:45;;;;;;;7.00;4.20;;;;;;;;;;5231534;27;20588;-72
2024/04/22 08:11:11;;;;;;;4.10;3.33;;;;;;;;;;5251252;27;20470;-75
2024/04/22 08:13:37;;;;;;;7.37;3.43;;;;;;;;;;5253685;27;20485;-75
2024/04/22 08:16:04;;;;;;;5.77;3.73;;;;;;;;;;5205846;27;20569;-75
2024/04/22 08:18:30;;;;;;;6.13;3.77;;;;;;;;;;5241924;27;20467;-77
2024/04/22 08:20:56;;;;;;;4.90;3.20;;;;;;;;;;5221427;27;20513;-73
2024/04/22 08:23:23;;;;;;;3.70;3.03;;;;;;;;;;5227360;27;21300;-74
2024/04/22 08:25:49;;;;;;;6.70;3.60;;;;;;;;;;5239937;27;20996;-75
2024/04/22 08:28:15;;;;;;;5.10;3.50;;;;;;;;;;5261362;27;20594;-73
2024/04/22 08:30:41;;;;;;;5.20;3.10;;;;;;;;;;5245114;27;20487;-74
2024/04/22 08:33:07;;;;;;;6.47;3.43;;;;;;;;;;5242326;27;20555;-73
2024/04/22 08:35:33;;;;;;;10.10;3.47;;;;;;;;;;5185352;27;20477;-73
2024/04/22 08:37:59;;;;;;;4.20;2.10;;;;;;;;;;5219067;27;20579;-73
2024/04/22 08:40:27;;;;;;;4.40;2.93;;;;;;;;;;5231220;27;20468;-72
2024/04/22 08:42:53;;;;;;;3.40;2.60;;;;;;;;;;5239332;27;20504;-73
2024/04/22 08:45:19;;;;;;;5.13;3.10;;;;;;;;;;5218150;27;20558;-73
2024/04/22 08:47:45;;;;;;;7.83;2.83;;;;;;;;;;5244501;27;20870;-73
2024/04/22 08:50:11;;;;;;;6.47;2.90;;;;;;;;;;5247541;27;20447;-74
2024/04/22 08:52:37;;;;;;;5.60;3.77;;;;;;;;;;5190208;27;20488;-75
2024/04/22 08:55:04;;;;;;;3.90;3.00;;;;;;;;;;5254407;27;20592;-74
2024/04/22 08:57:29;;;;;;;5.00;3.40;;;;;;;;;;5206407;27;20484;-72
2024/04/22 08:59:55;;;;;;;6.17;2.90;;;;;;;;;;5235125;27;20515;-72
2024/04/22 09:02:21;;;;;;;4.20;3.07;;;;;;;;;;5239342;27;20475;-76
2024/04/22 09:04:47;;;;;;;5.67;2.80;;;;;;;;;;5250748;27;20585;-76
2024/04/22 09:07:17;;;;;;;4.10;2.57;;;;;;;;;;5255127;27;21058;-74
2024/04/22 09:09:44;;;;;;;10.60;3.43;;;;;;;;;;5182903;27;20540;-73
2024/04/22 09:12:17;;;;;;;5.20;3.27;;;;;;;;;;5212036;27;20476;-73
2024/04/22 09:14:43;;;;;;;4.00;2.57;;;;;;;;;;5211787;27;20441;-73
2024/04/22 09:17:17;;;;;;;4.90;3.00;;;;;;;;;;5211076;27;20540;-73
2024/04/22 09:19:46;;;;;;;5.10;2.70;;;;;;;;;;5211326;27;20441;-73
2024/04/22 09:22:13;;;;;;;4.53;2.70;;;;;;;;;;5182122;27;20489;-73
2024/04/22 09:24:39;;;;;;;5.07;3.50;;;;;;;;;;5211102;27;20526;-73
2024/04/22 09:27:06;;;;;;;3.83;2.63;;;;;;;;;;5181464;27;20469;-72
2024/04/22 09:29:35;;;;;;;11.40;3.20;;;;;;;;;;5210971;27;20449;-72
2024/04/22 09:32:02;;;;;;;5.00;2.47;;;;;;;;;;5210619;27;20477;-72
2024/04/22 09:34:28;;;;;;;4.80;3.93;;;;;;;;;;5211136;27;20500;-73
2024/04/22 09:36:55;;;;;;;4.20;3.03;;;;;;;;;;5210804;27;20502;-73
2024/04/22 09:39:22;;;;;;;3.63;3.13;;;;;;;;;;5210820;27;20532;-73
2024/04/22 09:41:49;;;;;;;3.33;2.97;;;;;;;;;;5211277;27;21130;-73
2024/04/22 09:44:15;;;;;;;5.63;2.90;;;;;;;;;;5211248;27;20512;-73
2024/04/22 09:46:43;;;;;;;7.07;3.20;;;;;;;;;;5211131;27;20501;-73
2024/04/22 09:49:10;;;;;;;5.23;3.00;;;;;;;;;;5209832;27;20604;-73
2024/04/22 09:51:36;;;;;;;7.43;2.40;;;;;;;;;;5210358;27;20461;-73
2024/04/22 09:54:02;;;;;;;3.90;3.00;;;;;;;;;;5210913;27;20512;-73
2024/04/22 09:56:31;;;;;;;8.30;3.13;;;;;;;;;;5211354;27;21056;-73
2024/04/22 09:58:58;;;;;;;6.43;3.33;;;;;;;;;;5182278;27;21044;-73
2024/04/22 10:01:25;;;;;;;4.90;3.10;;;;;;;;;;5181423;27;20898;-73
2024/04/22 10:03:51;;;;;;;3.70;2.97;;;;;;;;;;5211225;27;20979;-72
2024/04/22 10:06:17;;;;;;;4.77;3.13;;;;;;;;;;5210872;27;20573;-72
2024/04/22 10:08:43;;;;;;;2.97;2.60;;;;;;;;;;5210547;27;20517;-73
2024/04/22 10:11:11;;;;;;;4.20;2.83;;;;;;;;;;5210632;27;20522;-73
2024/04/22 10:13:37;;;;;;;8.03;2.90;;;;;;;;;;5210486;27;20530;-74
2024/04/22 10:16:04;;;;;;;3.23;2.80;;;;;;;;;;5210409;27;20509;-73
2024/04/22 10:18:30;;;;;;;4.50;2.57;;;;;;;;;;5209732;27;20453;-72
2024/04/22 10:21:01;;;;;;;3.10;2.50;;;;;;;;;;5210411;27;20542;-73
2024/04/22 10:23:27;;;;;;;2.40;2.20;;;;;;;;;;5210273;27;20505;-73
2024/04/22 10:25:52;;;;;;;3.33;2.10;;;;;;;;;;5182506;27;20828;-73
2024/04/22 10:28:18;;;;;;;2.90;2.23;;;;;;;;;;5210821;27;20581;-73
2024/04/22 10:30:44;;;;;;;2.47;2.27;;;;;;;;;;5236239;27;20599;-73
2024/04/22 10:33:10;;;;;;;5.60;2.80;;;;;;;;;;5213958;27;20468;-73
2024/04/22 10:35:36;;;;;;;4.07;2.63;;;;;;;;;;5243554;27;20451;-73
2024/04/22 10:38:02;;;;;;;6.77;2.57;;;;;;;;;;5242391;27;20455;-73
2024/04/22 10:40:28;;;;;;;3.63;2.33;;;;;;;;;;5243148;27;20480;-74
2024/04/22 10:42:55;;;;;;;3.77;2.80;;;;;;;;;;5242948;27;20455;-73
2024/04/22 10:45:21;;;;;;;6.63;2.53;;;;;;;;;;5213777;27;20464;-73
2024/04/22 10:47:47;;;;;;;3.60;2.70;;;;;;;;;;5213212;27;20518;-73
2024/04/22 10:50:17;;;;;;;4.67;2.77;;;;;;;;;;5213497;27;20468;-74
2024/04/22 10:52:43;;;;;;;5.93;2.90;;;;;;;;;;5213727;27;20971;-73
2024/04/22 10:55:10;;;;;;;2.83;2.57;;;;;;;;;;5243281;27;20564;-73
2024/04/22 10:57:36;;;;;;;4.23;2.40;;;;;;;;;;5242269;27;20504;-74
2024/04/22 11:00:03;;;;;;;5.77;3.30;;;;;;;;;;5241844;27;20495;-72
2024/04/22 11:02:29;;;;;;;4.83;2.77;;;;;;;;;;5243003;27;20524;-73
2024/04/22 11:04:55;;;;;;;5.43;2.70;;;;;;;;;;5243100;27;20561;-73
2024/04/22 11:07:23;;;;;;;7.60;3.00;;;;;;;;;;5242505;27;20930;-73
2024/04/22 11:09:49;;;;;;;4.17;3.03;;;;;;;;;;5242862;27;20459;-73
2024/04/22 11:12:16;;;;;;;6.17;3.27;;;;;;;;;;5212270;27;21018;-73
2024/04/22 11:14:43;;;;;;;4.40;2.57;;;;;;;;;;5243120;27;20492;-73
2024/04/22 11:17:12;;;;;;;4.03;2.80;;;;;;;;;;5242601;27;20443;-73
2024/04/22 11:19:39;;;;;;;5.10;2.97;;;;;;;;;;5213564;27;20511;-73
2024/04/22 11:22:06;;;;;;;4.90;2.47;;;;;;;;;;5213453;27;20471;-73
2024/04/22 11:24:32;;;;;;;3.77;2.33;;;;;;;;;;5242839;27;20448;-73
2024/04/22 11:26:59;;;;;;;2.40;2.10;;;;;;;;;;5242584;27;20456;-73
2024/04/22 11:29:25;;;;;;;4.00;2.40;;;;;;;;;;5242886;27;20452;-73
2024/04/22 11:31:58;;;;;;;3.57;2.77;;;;;;;;;;5213375;27;20531;-73
2024/04/22 11:34:24;;;;;;;4.27;2.47;;;;;;;;;;5242839;27;20773;-72
2024/04/22 11:36:57;;;;;;;3.33;2.27;;;;;;;;;;5242838;27;20872;-73
2024/04/22 11:39:25;;;;;;;5.10;2.97;;;;;;;;;;5242867;27;20503;-73
2024/04/22 11:41:51;;;;;;;2.27;2.10;;;;;;;;;;5213096;27;20523;-73
2024/04/22 11:44:17;;;;;;;4.70;3.00;;;;;;;;;;5242493;27;20436;-73
2024/04/22 11:46:44;;;;;;;3.73;3.20;;;;;;;;;;5242371;27;20444;-73
2024/04/22 11:49:10;;;;;;;4.60;2.47;;;;;;;;;;5242367;27;20500;-74
2024/04/22 11:51:36;;;;;;;6.33;2.20;;;;;;;;;;5242730;27;20471;-73
2024/04/22 11:54:02;;;;;;;1.90;1.90;;;;;;;;;;5212935;27;20564;-73
2024/04/22 11:56:33;;;;;;;5.83;2.87;;;;;;;;;;5243169;27;20494;-72
2024/04/22 11:58:59;;;;;;;2.90;2.30;;;;;;;;;;5244511;27;20568;-72
2024/04/22 12:01:25;;;;;;;3.37;2.70;;;;;;;;;;5216019;27;20483;-73
2024/04/22 12:03:51;;;;;;;4.70;2.40;;;;;;;;;;5246870;27;20496;-73
2024/04/22 12:06:17;;;;;;;3.50;2.43;;;;;;;;;;5246315;27;20452;-73
2024/04/22 12:08:44;;;;;;;3.40;2.27;;;;;;;;;;5246111;27;20574;-72
2024/04/22 12:11:10;;;;;;;3.83;2.57;;;;;;;;;;5215633;27;20479;-72
2024/04/22 12:13:36;;;;;;;4.37;2.73;;;;;;;;;;5245413;27;20796;-72
2024/04/22 12:16:02;;;;;;;3.37;2.23;;;;;;;;;;5216258;27;20501;-72
2024/04/22 12:18:28;;;;;;;9.50;3.20;;;;;;;;;;5245009;27;20817;-73
2024/04/22 12:20:54;;;;;;;3.27;2.27;;;;;;;;;;5245333;27;20560;-73
2024/04/22 12:23:21;;;;;;;2.60;2.33;;;;;;;;;;5245261;27;21122;-73
2024/04/22 12:25:47;;;;;;;2.97;2.17;;;;;;;;;;5245112;27;20515;-72
2024/04/22 12:28:13;;;;;;;3.20;2.23;;;;;;;;;;5245147;27;20973;-73
2024/04/22 12:30:39;;;;;;;5.67;2.57;;;;;;;;;;5245570;27;20475;-73
2024/04/22 12:33:05;;;;;;;6.83;3.33;;;;;;;;;;5215977;27;20800;-73
2024/04/22 12:35:31;;;;;;;4.97;3.10;;;;;;;;;;5245342;27;20455;-73
2024/04/22 12:37:57;;;;;;;4.17;2.80;;;;;;;;;;5244859;27;20451;-73
2024/04/22 12:40:23;;;;;;;3.37;3.10;;;;;;;;;;5215079;27;20511;-72
2024/04/22 12:42:49;;;;;;;7.10;2.97;;;;;;;;;;5244901;27;20448;-73
2024/04/22 12:45:15;;;;;;;3.13;2.30;;;;;;;;;;5215017;27;20776;-73
2024/04/22 12:53:10;;;;;;;4.63;2.40;;;;;;;;;;5244775;27;20490;-73
2024/04/22 12:55:36;;;;;;;7.17;2.80;;;;;;;;;;5244720;27;20440;-73
2024/04/22 12:58:02;;;;;;;4.10;2.60;;;;;;;;;;5243854;27;20451;-72
2024/04/22 13:00:28;;;;;;;5.27;3.00;;;;;;;;;;5244673;27;20505;-72
2024/04/22 13:02:55;;;;;;;9.73;4.53;;;;;;;;;;5244504;27;20591;-73
2024/04/22 13:05:21;;;;;;;4.40;2.50;;;;;;;;;;5244794;27;20853;-73
2024/04/22 13:07:47;;;;;;;2.70;2.27;;;;;;;;;;5214696;27;20471;-73
2024/04/22 13:10:13;;;;;;;4.47;2.50;;;;;;;;;;5244225;27;20508;-73
2024/04/22 13:12:39;;;;;;;3.60;2.37;;;;;;;;;;5244972;27;20447;-73
2024/04/22 13:15:05;;;;;;;4.23;2.70;;;;;;;;;;5246830;27;20503;-73
2024/04/22 13:17:30;;;;;;;3.43;2.23;;;;;;;;;;5249617;27;20463;-73
2024/04/22 13:19:56;;;;;;;4.00;2.83;;;;;;;;;;5249883;27;20575;-73
2024/04/22 13:22:22;;;;;;;3.40;2.60;;;;;;;;;;5219351;27;20476;-73
2024/04/22 13:24:48;;;;;;;3.87;2.80;;;;;;;;;;5249959;27;20443;-72
2024/04/22 13:27:14;;;;;;;3.13;2.33;;;;;;;;;;5250265;27;20448;-73
2024/04/22 13:29:40;;;;;;;2.70;2.30;;;;;;;;;;5262387;27;20464;-73
2024/04/22 13:32:07;;;;;;;4.60;2.47;;;;;;;;;;5255571;27;20812;-72
2024/04/22 13:34:33;;;;;;;3.43;2.23;;;;;;;;;;5245838;27;20460;-72
2024/04/22 13:36:59;;;;;;;3.67;2.53;;;;;;;;;;5244716;27;21035;-72
2024/04/22 13:39:25;;;;;;;3.60;2.87;;;;;;;;;;5244203;27;20520;-72
2024/04/22 13:41:52;;;;;;;3.33;2.43;;;;;;;;;;5244917;27;20463;-73
2024/04/22 13:44:18;;;;;;;2.63;2.47;;;;;;;;;;5244910;27;20448;-72
2024/04/22 13:46:44;;;;;;;4.77;3.10;;;;;;;;;;5245508;27;20503;-73
2024/04/22 13:49:13;;;;;;;3.80;2.30;;;;;;;;;;5246161;27;20527;-72
2024/04/22 13:51:40;;;;;;;3.40;2.30;;;;;;;;;;5245901;27;20463;-73
2024/04/22 13:54:07;;;;;;;3.83;2.40;;;;;;;;;;5243573;27;20456;-73
2024/04/22 13:56:33;;;;;;;2.47;2.00;;;;;;;;;;5243925;27;20983;-73
2024/04/22 13:58:59;;;;;;;2.40;2.20;;;;;;;;;;5243171;27;20452;-73
2024/04/22 14:01:25;;;;;;;2.77;2.43;;;;;;;;;;5243956;27;20467;-72
2024/04/22 14:03:52;;;;;;;4.63;2.80;;;;;;;;;;5243913;27;20495;-73
2024/04/22 14:06:18;;;;;;;3.17;2.50;;;;;;;;;;5244063;27;20505;-74
2024/04/22 14:08:48;;;;;;;4.90;2.57;;;;;;;;;;5214068;27;20860;-72
2024/04/22 14:11:14;;;;;;;6.07;2.60;;;;;;;;;;5243418;27;20480;-73
2024/04/22 14:13:40;;;;;;;3.37;2.47;;;;;;;;;;5213958;27;20468;-72
2024/04/22 14:16:07;;;;;;;3.47;2.33;;;;;;;;;;5242992;27;20797;-73
2024/04/22 14:18:33;;;;;;;3.03;2.43;;;;;;;;;;5243355;27;20456;-73
2024/04/22 14:20:58;;;;;;;6.10;2.50;;;;;;;;;;5243280;27;21060;-73
2024/04/22 14:23:24;;;;;;;2.53;2.27;;;;;;;;;;5243480;27;20515;-72
2024/04/22 14:25:51;;;;;;;3.80;2.30;;;;;;;;;;5243677;27;20459;-73
2024/04/22 14:28:17;;;;;;;5.70;2.37;;;;;;;;;;5243799;27;20455;-73
2024/04/22 14:30:44;;;;;;;3.50;2.10;;;;;;;;;;5243410;27;21102;-73
2024/04/22 14:33:12;;;;;;;3.63;2.20;;;;;;;;;;5243365;27;21042;-73
2024/04/22 14:35:38;;;;;;;5.00;2.10;;;;;;;;;;5242927;27;20451;-74
2024/04/22 14:38:05;;;;;;;3.60;2.20;;;;;;;;;;5243316;27;20568;-74
2024/04/22 14:40:31;;;;;;;4.20;2.50;;;;;;;;;;5243472;27;20463;-73
2024/04/22 14:42:57;;;;;;;2.40;2.03;;;;;;;;;;5243624;27;20533;-74
2024/04/22 14:45:23;;;;;;;3.97;2.57;;;;;;;;;;5243260;27;21035;-73
2024/04/22 14:47:49;;;;;;;2.50;2.13;;;;;;;;;;5243187;27;20455;-74
2024/04/22 14:50:15;;;;;;;3.83;2.60;;;;;;;;;;5213803;27;20467;-74
2024/04/22 14:52:41;;;;;;;3.20;2.20;;;;;;;;;;5243548;27;20448;-73
2024/04/22 14:55:08;;;;;;;9.23;3.13;;;;;;;;;;5243918;27;20500;-73
2024/04/22 14:57:34;;;;;;;6.07;3.23;;;;;;;;;;5243446;27;20451;-73
2024/04/22 15:00:00;;;;;;;5.70;3.27;;;;;;;;;;5243580;27;20459;-73
2024/04/22 15:02:26;;;;;;;6.20;3.47;;;;;;;;;;5243699;27;20471;-73
2024/04/22 15:04:52;;;;;;;5.60;3.40;;;;;;;;;;5245526;27;20500;-72
2024/04/22 15:07:18;;;;;;;6.47;3.37;;;;;;;;;;5216173;27;20508;-71
2024/04/22 15:09:49;;;;;;;4.67;3.57;;;;;;;;;;5246178;27;20515;-72
2024/04/22 15:12:15;;;;;;;7.83;3.50;;;;;;;;;;5247088;27;20515;-72
2024/04/22 15:14:41;;;;;;;5.17;3.03;;;;;;;;;;5247078;27;20508;-72
2024/04/22 15:17:07;;;;;;;8.13;3.63;;;;;;;;;;5245908;27;20444;-71
2024/04/22 15:19:33;;;;;;;7.73;3.47;;;;;;;;;;5248354;27;20526;-72
2024/04/22 15:22:00;;;;;;;8.03;3.30;;;;;;;;;;5245407;27;20475;-72
2024/04/22 15:24:26;;;;;;;4.40;3.10;;;;;;;;;;5217112;27;20455;-72
2024/04/22 15:26:53;;;;;;;6.83;3.10;;;;;;;;;;5246023;27;20448;-72
2024/04/22 15:29:19;;;;;;;6.10;2.97;;;;;;;;;;5245892;27;20596;-71
2024/04/22 15:31:45;;;;;;;8.20;3.60;;;;;;;;;;5245493;27;20468;-71
2024/04/22 15:34:11;;;;;;;5.20;3.03;;;;;;;;;;5245060;27;20563;-72
2024/04/22 15:36:37;;;;;;;5.63;3.37;;;;;;;;;;5214502;27;20597;-72
2024/04/22 15:39:06;;;;;;;4.27;2.63;;;;;;;;;;5244198;27;20451;-71
2024/04/22 15:41:32;;;;;;;3.10;2.67;;;;;;;;;;5243461;27;20535;-72
2024/04/22 15:43:59;;;;;;;5.00;3.00;;;;;;;;;;5243830;27;20495;-72
2024/04/22 15:46:25;;;;;;;2.80;2.30;;;;;;;;;;5242732;27;20504;-72
2024/04/22 15:48:51;;;;;;;7.87;2.73;;;;;;;;;;5244048;27;20452;-72
2024/04/22 15:51:17;;;;;;;5.20;2.60;;;;;;;;;;5244192;27;20563;-72
2024/04/22 15:53:43;;;;;;;8.53;2.70;;;;;;;;;;5244927;27;20494;-72
2024/04/22 15:56:09;;;;;;;3.33;2.63;;;;;;;;;;5245488;27;20451;-72
2024/04/22 15:58:35;;;;;;;3.70;3.00;;;;;;;;;;5212900;27;20460;-72
2024/04/22 16:01:01;;;;;;;3.70;2.80;;;;;;;;;;5243271;27;20533;-72
2024/04/22 16:03:30;;;;;;;3.67;2.57;;;;;;;;;;5242941;27;20452;-72
2024/04/22 16:05:56;;;;;;;7.90;2.67;;;;;;;;;;5242565;27;20844;-72
2024/04/22 16:08:22;;;;;;;4.60;2.73;;;;;;;;;;5212677;27;20472;-72
2024/04/22 16:10:48;;;;;;;7.40;3.23;;;;;;;;;;5242511;27;20475;-72
2024/04/22 16:13:14;;;;;;;2.80;2.60;;;;;;;;;;5242540;27;20515;-72
2024/04/22 16:15:40;;;;;;;3.90;2.17;;;;;;;;;;5243044;27;20571;-72
2024/04/22 16:18:07;;;;;;;6.13;2.63;;;;;;;;;;5242052;27;20565;-72
2024/04/22 16:20:33;;;;;;;2.77;2.33;;;;;;;;;;5241950;27;20480;-72
2024/04/22 16:22:59;;;;;;;3.60;2.37;;;;;;;;;;5242743;27;20503;-72
2024/04/22 16:25:25;;;;;;;2.27;2.10;;;;;;;;;;5213198;27;20460;-72
2024/04/22 16:27:52;;;;;;;4.27;3.00;;;;;;;;;;5243211;27;20503;-71
2024/04/22 16:30:18;;;;;;;4.30;3.10;;;;;;;;;;5242921;27;20760;-71
2024/04/22 16:32:44;;;;;;;3.80;2.87;;;;;;;;;;5243212;27;20523;-73
2024/04/22 16:35:10;;;;;;;4.63;2.70;;;;;;;;;;5213757;27;20467;-73
2024/04/22 16:37:37;;;;;;;3.70;2.80;;;;;;;;;;5242697;27;20455;-72
2024/04/22 16:40:04;;;;;;;7.00;3.40;;;;;;;;;;5243913;27;20820;-72
2024/04/22 16:42:30;;;;;;;6.10;3.97;;;;;;;;;;5242366;27;20459;-72
2024/04/22 16:44:55;;;;;;;3.77;2.67;;;;;;;;;;5242023;27;20460;-72
2024/04/22 16:47:21;;;;;;;3.90;2.97;;;;;;;;;;5241361;27;20459;-72
2024/04/22 16:49:48;;;;;;;4.03;3.30;;;;;;;;;;5241640;27;20456;-72
2024/04/22 16:52:14;;;;;;;3.73;2.63;;;;;;;;;;5241835;27;20531;-72
2024/04/22 16:54:40;;;;;;;8.20;3.73;;;;;;;;;;5241731;27;20452;-72
2024/04/22 16:57:06;;;;;;;5.23;3.10;;;;;;;;;;5241192;27;20451;-72
2024/04/22 16:59:31;;;;;;;5.63;3.30;;;;;;;;;;5245151;27;20447;-72
2024/04/22 17:01:57;;;;;;;7.73;2.60;;;;;;;;;;5245997;27;20526;-71
2024/04/22 17:04:23;;;;;;;4.37;2.83;;;;;;;;;;5245914;27;20444;-73
2024/04/22 17:06:49;;;;;;;5.20;3.00;;;;;;;;;;5216374;27;20519;-72
2024/04/22 17:09:22;;;;;;;3.93;2.93;;;;;;;;;;5245284;27;20456;-72
2024/04/22 17:11:48;;;;;;;2.77;2.50;;;;;;;;;;5215326;27;20529;-72
2024/04/22 17:14:14;;;;;;;3.40;2.60;;;;;;;;;;5292075;22;20566;-77
2024/04/22 17:16:41;;;;;;;3.63;2.53;;;;;;;;;;5247547;27;20432;-78
2024/04/22 17:19:08;;;;;;;8.53;2.87;;;;;;;;;;5246272;27;20439;-78
2024/04/22 17:21:34;;;;;;;4.30;2.50;;;;;;;;;;5244215;27;20985;-78
2024/04/22 17:24:00;;;;;;;3.57;2.60;;;;;;;;;;5245556;27;20507;-78
2024/04/22 17:26:26;;;;;;;2.67;2.30;;;;;;;;;;5243905;27;20510;-78
2024/04/22 17:28:52;;;;;;;3.47;2.10;;;;;;;;;;5245417;27;20499;-78
2024/04/22 17:31:18;;;;;;;3.83;2.73;;;;;;;;;;5245192;27;20448;-77
2024/04/22 17:33:44;;;;;;;6.70;2.97;;;;;;;;;;5245321;27;20826;-78
2024/04/22 17:36:10;;;;;;;3.60;2.70;;;;;;;;;;5245460;27;20990;-78
2024/04/22 17:38:36;;;;;;;3.20;2.27;;;;;;;;;;5247692;27;20443;-78
2024/04/22 17:41:02;;;;;;;3.30;2.40;;;;;;;;;;5245088;27;20798;-78
2024/04/22 17:43:28;;;;;;;3.43;2.20;;;;;;;;;;5245280;27;20515;-78
2024/04/22 17:45:58;;;;;;;3.00;2.40;;;;;;;;;;5246175;27;20451;-78
2024/04/22 17:48:24;;;;;;;4.27;2.50;;;;;;;;;;5245315;27;20538;-78
2024/04/22 17:50:50;;;;;;;3.57;2.40;;;;;;;;;;5244973;27;20556;-78
2024/04/22 17:53:16;;;;;;;3.93;3.00;;;;;;;;;;5245492;27;20867;-77
2024/04/22 17:55:42;;;;;;;3.03;2.43;;;;;;;;;;5243708;27;20864;-77
2024/04/22 17:58:08;;;;;;;4.53;2.40;;;;;;;;;;5243264;27;20802;-78
2024/04/22 18:00:35;;;;;;;3.97;2.53;;;;;;;;;;5245040;27;20978;-78
2024/04/22 18:03:01;;;;;;;4.80;2.77;;;;;;;;;;5245098;27;20803;-78
2024/04/22 18:05:26;;;;;;;3.97;2.87;;;;;;;;;;5247471;27;20494;-77
2024/04/22 18:07:52;;;;;;;3.97;2.93;;;;;;;;;;5255963;27;20443;-78
2024/04/22 18:10:18;;;;;;;7.50;3.00;;;;;;;;;;5254165;27;20967;-77
2024/04/22 18:12:44;;;;;;;4.70;2.90;;;;;;;;;;5254403;27;20935;-77
2024/04/22 18:15:10;;;;;;;5.40;3.40;;;;;;;;;;5256454;27;20806;-78
2024/04/22 18:17:36;;;;;;;4.53;2.83;;;;;;;;;;5256469;27;20447;-77
2024/04/22 18:20:03;;;;;;;5.43;3.10;;;;;;;;;;5249253;27;20452;-77
2024/04/22 18:22:29;;;;;;;4.50;3.20;;;;;;;;;;5245769;27;20459;-77
2024/04/22 18:24:55;;;;;;;5.23;3.43;;;;;;;;;;5245117;27;20467;-77
2024/04/22 18:27:21;;;;;;;8.10;4.10;;;;;;;;;;5245441;27;20528;-77
2024/04/22 18:29:46;;;;;;;4.83;3.67;;;;;;;;;;5245497;27;20455;-77
2024/04/22 18:32:12;;;;;;;3.87;2.90;;;;;;;;;;5245118;27;20500;-77
2024/04/22 18:34:38;;;;;;;7.93;3.50;;;;;;;;;;5244879;27;20472;-77
2024/04/22 18:37:04;;;;;;;4.50;3.37;;;;;;;;;;5243991;27;20451;-78
2024/04/22 18:39:30;;;;;;;6.33;3.73;;;;;;;;;;5244708;27;20444;-77
2024/04/22 18:41:56;;;;;;;8.60;4.67;;;;;;;;;;5242742;27;20452;-78
2024/04/22 18:44:24;;;;;;;8.53;3.07;;;;;;;;;;5244699;27;20468;-77
2024/04/22 18:46:50;;;;;;;8.00;4.30;;;;;;;;;;5244724;27;20448;-77
2024/04/22 18:49:16;;;;;;;5.07;4.20;;;;;;;;;;5244314;27;20536;-77
2024/04/22 18:51:42;;;;;;;4.60;3.70;;;;;;;;;;5244571;27;20452;-77
2024/04/22 18:54:08;;;;;;;17.20;5.10;;;;;;;;;;5244248;27;20479;-77
2024/04/22 18:56:34;;;;;;;8.73;4.43;;;;;;;;;;5242556;27;20509;-77
2024/04/22 18:59:00;;;;;;;8.20;5.17;;;;;;;;;;5243802;27;20500;-77
2024/04/22 19:01:26;;;;;;;7.27;4.20;;;;;;;;;;5243932;27;20439;-76
2024/04/22 19:03:51;;;;;;;6.10;4.23;;;;;;;;;;5244057;27;20475;-77
2024/04/22 19:06:17;;;;;;;7.00;4.00;;;;;;;;;;5244174;27;20490;-77
2024/04/22 19:08:44;;;;;;;5.63;4.07;;;;;;;;;;5243992;27;20460;-77
2024/04/22 19:11:10;;;;;;;6.27;4.13;;;;;;;;;;5244186;27;20593;-77
2024/04/22 19:13:36;;;;;;;5.20;3.50;;;;;;;;;;5243881;27;20467;-77
2024/04/22 19:16:02;;;;;;;6.67;3.80;;;;;;;;;;5244144;27;20436;-76
2024/04/22 19:18:28;;;;;;;5.43;3.33;;;;;;;;;;5243490;27;20536;-77
2024/04/22 19:20:54;;;;;;;7.10;3.80;;;;;;;;;;5242377;27;21050;-76
2024/04/22 19:23:20;;;;;;;5.83;3.53;;;;;;;;;;5243347;27;20998;-77
2024/04/22 19:25:47;;;;;;;10.47;4.50;;;;;;;;;;5243805;27;20512;-76
2024/04/22 19:28:13;;;;;;;4.10;3.37;;;;;;;;;;5243970;27;20451;-77
2024/04/22 19:30:39;;;;;;;7.30;3.10;;;;;;;;;;5241916;27;20527;-77
2024/04/22 19:33:05;;;;;;;4.60;3.30;;;;;;;;;;5243692;27;20476;-77
2024/04/22 19:35:32;;;;;;;4.77;3.30;;;;;;;;;;5243144;27;20447;-77
2024/04/22 19:38:00;;;;;;;4.70;3.30;;;;;;;;;;5243284;27;20515;-77
2024/04/22 19:40:26;;;;;;;6.13;3.47;;;;;;;;;;5243423;27;20504;-76
2024/04/22 19:42:52;;;;;;;6.70;3.80;;;;;;;;;;5243129;27;20817;-77
2024/04/22 19:45:18;;;;;;;4.90;2.90;;;;;;;;;;5243277;27;20457;-77